Catàleg de serveis del Meteocat
Campanya meteocatpedra

Dades de l'estació automàtica Tornabous

?
?
Resum diari 21:00 TU
Dades diàries de l'estació meteorològica
Temperatura mitjana 19.8 °C
Temperatura màxima 27.2 °C 13:57 TU
Temperatura mínima 15.5 °C 3:26 TU
Humitat relativa mitjana 86%
Precipitació acumulada 2.8 mm
Ratxa màxima del vent (2 m) 22.3 km/h - 95º 14:34 TU

El tram horari està expressat en Temps Universal (TU). Cal sumar una hora en horari d'hivern i dues en horari d'estiu per passar a l'hora oficial.

Tornabous

Metadades estació meteorol´gica
Municipi Tornabous
Comarca Urgell
Altitud 291 m
Data alta 06.08.2013
Estat actual Operativa
Dades de període
Període
TU
TM
°C
TX
°C
TN
°C
HRM
%
PPT
mm
VVM (2 m)
km/h
DVM (2 m)
graus
VVX (2 m)
km/h
00:00 - 00:30 17.3 17.5 17.0 94 0.0 0.7 61 4.3
00:30 - 01:00 17.1 17.4 16.7 95 0.0 0.0 70 4.0
01:00 - 01:30 16.5 16.7 16.2 98 0.0 0.0 0 0.0
01:30 - 02:00 16.1 16.2 15.9 99 0.0 0.0 0 0.0
02:00 - 02:30 16.3 16.4 16.1 99 0.0 0.4 214 2.9
02:30 - 03:00 15.9 16.1 15.7 100 0.0 0.0 0 0.0
03:00 - 03:30 15.7 15.9 15.5 100 0.0 0.0 0 0.0
03:30 - 04:00 15.9 16.3 15.6 100 0.0 1.1 40 4.7
04:00 - 04:30 17.1 17.5 16.4 94 0.0 3.2 41 10.4
04:30 - 05:00 17.6 17.7 17.3 90 0.0 2.5 44 7.9
05:00 - 05:30 17.4 17.6 17.2 92 0.0 1.1 66 5.0
05:30 - 06:00 17.2 17.4 17.1 95 0.2 0.0 88 1.1
06:00 - 06:30 17.1 17.2 16.9 99 2.0 4.7 63 15.8
06:30 - 07:00 17.1 17.2 17.0 98 0.4 5.4 66 15.8
07:00 - 07:30 17.2 17.2 17.1 98 0.2 2.9 33 8.3
07:30 - 08:00 17.3 17.4 17.2 98 0.0 3.6 37 9.0
08:00 - 08:30 17.5 18.3 17.3 98 0.0 2.9 53 9.4
08:30 - 09:00 19.4 19.7 18.5 91 0.0 4.0 65 9.4
09:00 - 09:30 20.1 20.6 19.4 90 0.0 4.3 86 11.2
09:30 - 10:00 19.9 20.5 19.7 89 0.0 4.3 79 9.7
10:00 - 10:30 20.3 21.3 19.7 87 0.0 3.6 50 9.7
10:30 - 11:00 22.0 22.6 21.3 80 0.0 5.0 40 13.3
11:00 - 11:30 23.7 24.8 22.7 75 0.0 4.7 55 10.8
11:30 - 12:00 25.2 25.5 24.8 68 0.0 4.3 25 13.0
12:00 - 12:30 25.4 26.1 24.4 63 0.0 3.2 17 8.3
12:30 - 13:00 25.5 26.1 24.9 62 0.0 2.9 33 6.8
13:00 - 13:30 25.6 26.5 25.1 58 0.0 3.2 330 14.0
13:30 - 14:00 26.7 27.2 26.0 47 0.0 4.3 295 14.4
14:00 - 14:30 24.8 26.7 22.3 62 0.0 6.1 97 20.2
14:30 - 15:00 22.6 23.1 22.2 74 0.0 8.6 93 22.3
15:00 - 15:30 22.5 22.8 22.4 74 0.0 7.6 103 19.4
15:30 - 16:00 23.1 23.5 22.6 73 0.0 7.2 106 16.6
16:00 - 16:30 23.1 23.3 22.8 71 0.0 8.6 95 21.2
16:30 - 17:00 22.1 22.7 21.7 76 0.0 5.0 97 14.4
17:00 - 17:30 21.3 21.7 21.1 82 0.0 4.0 76 12.6
17:30 - 18:00 20.8 21.2 20.3 80 0.0 4.0 94 13.3
18:00 - 18:30 19.3 20.2 18.7 89 0.0 0.7 48 3.2
18:30 - 19:00 18.9 19.1 18.6 91 0.0 1.4 48 4.7
19:00 - 19:30 19.0 19.2 18.7 92 0.0 3.2 49 7.2
19:30 - 20:00 19.0 19.2 18.8 91 0.0 2.9 57 6.8
20:00 - 20:30 18.6 18.8 18.4 92 0.0 2.2 54 6.5
20:30 - 21:00 18.2 18.4 17.8 94 0.0 2.2 47 5.8
21:00 - 21:30 17.4 17.8 17.1 97 0.0 0.7 42 4.0

Les dades en taronja només han passat un control de qualitat automàtic. Resta pendent la seva validació definitiva.